Time;durP1;ratioP1;P1;durP2;ratioP2;P2;SDS_P1;SDS_P2;PMS_P1;PMS_P2;Temp;Humidity;BMP_temperature;BMP_pressure;BME280_temperature;BME280_humidity;BME280_pressure;Samples;Min_cycle;Max_cycle;Signal;HPM_P1;HPM_P2
2023/12/15 00:01:09;;;;;;;2.65;1.90;;;;;;;9.08;65.47;100149.37;4406022;32;32757;-82
2023/12/15 00:03:37;;;;;;;1.15;1.15;;;;;;;8.68;67.46;100153.22;4394361;32;32792;-81
2023/12/15 00:06:05;;;;;;;1.00;0.80;;;;;;;8.95;65.97;100149.75;4393386;32;32838;-82
2023/12/15 00:08:33;;;;;;;0.85;0.85;;;;;;;9.00;65.71;100148.72;4408517;32;33518;-82
2023/12/15 00:11:00;;;;;;;3.20;2.58;;;;;;;8.79;67.00;100153.78;4408089;32;32346;-81
2023/12/15 00:13:28;;;;;;;1.87;1.77;;;;;;;8.16;69.57;100160.81;4409037;32;33405;-82
2023/12/15 00:15:56;;;;;;;3.28;2.22;;;;;;;8.67;67.34;100162.87;4408400;32;34384;-82
2023/12/15 00:18:24;;;;;;;3.67;2.92;;;;;;;8.67;67.23;100167.28;4407390;32;34308;-82
2023/12/15 00:20:51;;;;;;;2.92;2.83;;;;;;;8.41;68.06;100168.06;4420998;32;33933;-82
2023/12/15 00:23:19;;;;;;;2.92;2.45;;;;;;;8.42;68.03;100173.28;4408707;32;34513;-82
2023/12/15 00:25:47;;;;;;;1.42;1.33;;;;;;;8.65;67.47;100172.63;4391409;32;33956;-82
2023/12/15 00:28:15;;;;;;;0.70;0.70;;;;;;;8.37;68.52;100175.19;4408702;32;34009;-82
2023/12/15 00:30:43;;;;;;;1.62;1.58;;;;;;;8.69;67.14;100176.03;4395733;32;32462;-82
2023/12/15 00:33:11;;;;;;;1.25;1.25;;;;;;;8.50;68.07;100187.97;4408833;32;34839;-80
2023/12/15 00:35:39;;;;;;;4.43;2.65;;;;;;;8.62;67.76;100179.72;4407625;32;34746;-81
2023/12/15 00:38:06;;;;;;;3.72;0.90;;;;;;;8.54;68.03;100189.63;4395377;32;31090;-81
2023/12/15 00:40:34;;;;;;;5.57;2.60;;;;;;;8.67;67.62;100188.34;4408028;32;33789;-81
2023/12/15 00:43:02;;;;;;;2.25;2.10;;;;;;;8.59;67.45;100192.97;4400567;32;32910;-81
2023/12/15 00:45:29;;;;;;;1.65;1.55;;;;;;;8.72;66.13;100199.59;4406341;32;34240;-81
2023/12/15 00:47:57;;;;;;;1.75;1.65;;;;;;;8.39;67.74;100204.09;4395468;32;33782;-81
2023/12/15 00:50:28;;;;;;;0.30;0.30;;;;;;;8.53;67.21;100208.94;4394868;32;32869;-80
2023/12/15 00:52:57;;;;;;;0.80;0.80;;;;;;;8.86;66.11;100207.09;4408379;32;33939;-81
2023/12/15 00:55:25;;;;;;;6.78;2.47;;;;;;;8.62;66.76;100216.59;4408590;32;34015;-80
2023/12/15 00:57:53;;;;;;;1.73;1.62;;;;;;;8.57;66.77;100215.84;4407633;32;33827;-80
2023/12/15 01:00:20;;;;;;;0.43;0.43;;;;;;;8.80;66.31;100212.56;4394338;32;32471;-79
2023/12/15 01:02:48;;;;;;;4.97;3.05;;;;;;;8.57;66.76;100219.34;4407002;32;32579;-80
2023/12/15 01:05:16;;;;;;;2.17;1.95;;;;;;;8.67;66.20;100219.94;4395400;32;33259;-79
2023/12/15 01:07:44;;;;;;;2.55;2.35;;;;;;;8.26;67.93;100228.97;4395372;32;32656;-79
2023/12/15 01:10:16;;;;;;;1.75;1.60;;;;;;;8.34;67.89;100238.38;4407167;32;33566;-79
2023/12/15 01:12:43;;;;;;;1.73;1.62;;;;;;;8.18;67.61;100231.81;4395808;32;32853;-79
2023/12/15 01:15:11;;;;;;;5.22;2.33;;;;;;;8.64;66.17;100236.72;4406725;32;33393;-81
2023/12/15 01:17:38;;;;;;;1.27;1.17;;;;;;;8.96;65.22;100235.72;4405938;32;32422;-79
2023/12/15 01:20:07;;;;;;;4.55;2.50;;;;;;;8.54;66.77;100242.25;4404113;32;31936;-79
2023/12/15 01:22:34;;;;;;;2.92;1.95;;;;;;;8.53;66.50;100241.41;4406661;32;33211;-79
2023/12/15 01:25:02;;;;;;;1.77;1.67;;;;;;;8.40;66.58;100245.28;4395416;32;33802;-79
2023/12/15 01:27:30;;;;;;;6.43;3.95;;;;;;;8.31;67.49;100253.38;4406470;32;31988;-79
2023/12/15 01:29:57;;;;;;;3.08;2.85;;;;;;;8.39;67.19;100254.06;4393996;32;32624;-79
2023/12/15 01:32:25;;;;;;;0.65;0.65;;;;;;;8.12;68.06;100258.31;4407349;32;33129;-79
2023/12/15 01:34:53;;;;;;;1.55;1.48;;;;;;;8.09;68.11;100263.63;4394073;32;33788;-79
2023/12/15 01:37:20;;;;;;;0.85;0.85;;;;;;;7.95;69.09;100267.47;4406354;32;33607;-79
2023/12/15 01:39:48;;;;;;;4.00;3.37;;;;;;;7.55;69.90;100266.72;4408018;32;34204;-79
2023/12/15 01:42:16;;;;;;;2.20;2.00;;;;;;;8.21;67.76;100266.81;4395139;32;33876;-79
2023/12/15 01:44:43;;;;;;;1.70;1.45;;;;;;;8.14;67.88;100261.75;4406647;32;32222;-80
2023/12/15 01:47:13;;;;;;;2.42;1.58;;;;;;;8.03;67.80;100276.94;4395552;32;32072;-79
2023/12/15 01:49:41;;;;;;;4.22;2.87;;;;;;;7.73;69.90;100281.19;4406742;32;33911;-79
2023/12/15 01:52:08;;;;;;;6.68;2.28;;;;;;;8.03;67.92;100272.53;4396575;32;34355;-79
2023/12/15 01:54:36;;;;;;;1.90;1.58;;;;;;;8.10;68.35;100267.97;4392612;32;33353;-79
2023/12/15 01:57:04;;;;;;;2.20;1.75;;;;;;;7.51;69.91;100276.47;4418039;32;33171;-79
2023/12/15 01:59:49;;;;;;;0.85;0.85;;;;;;;7.64;69.92;100277.91;4407114;32;33046;-79
2023/12/15 02:02:17;;;;;;;3.42;1.65;;;;;;;7.88;68.74;100271.19;4406700;32;34055;-79
2023/12/15 02:04:46;;;;;;;3.33;2.95;;;;;;;7.95;68.40;100283.25;4407402;32;34396;-79
2023/12/15 02:07:14;;;;;;;2.55;1.60;;;;;;;7.85;68.95;100271.25;4394253;32;32148;-80
2023/12/15 02:09:42;;;;;;;3.58;3.33;;;;;;;7.94;68.61;100272.78;4405473;32;33143;-80
2023/12/15 02:12:09;;;;;;;0.43;0.40;;;;;;;7.62;69.81;100279.69;4406803;32;33228;-80
2023/12/15 02:14:37;;;;;;;2.42;2.28;;;;;;;7.72;69.42;100282.94;4406811;32;34393;-80
2023/12/15 02:17:05;;;;;;;2.15;2.05;;;;;;;7.93;68.13;100284.22;4407658;32;33326;-80
2023/12/15 02:19:32;;;;;;;8.77;1.37;;;;;;;8.02;68.37;100289.19;4419366;32;33585;-80
2023/12/15 02:22:00;;;;;;;3.50;1.52;;;;;;;7.82;68.91;100276.56;4407284;32;33290;-80
2023/12/15 02:24:28;;;;;;;2.12;2.03;;;;;;;7.86;68.89;100278.22;4407620;32;34792;-80
2023/12/15 02:26:56;;;;;;;1.58;1.50;;;;;;;8.10;67.72;100281.13;4404917;32;33221;-80
2023/12/15 02:29:26;;;;;;;2.10;1.92;;;;;;;8.20;67.37;100286.09;4406202;32;34792;-79
2023/12/15 02:31:54;;;;;;;2.22;1.77;;;;;;;8.44;66.78;100276.72;4407591;32;33175;-79
2023/12/15 02:34:24;;;;;;;1.67;1.65;;;;;;;8.42;66.17;100273.28;4394919;32;32577;-79
2023/12/15 02:36:52;;;;;;;1.60;1.42;;;;;;;8.25;67.38;100278.09;4394992;32;32590;-80
2023/12/15 02:39:20;;;;;;;1.83;1.73;;;;;;;7.91;68.16;100292.13;4403890;32;32667;-79
2023/12/15 02:41:49;;;;;;;0.90;0.32;;;;;;;7.77;69.77;100288.09;4407461;32;33296;-80
2023/12/15 02:44:16;;;;;;;2.42;1.83;;;;;;;7.95;68.45;100293.75;4394700;32;33244;-80
2023/12/15 02:46:44;;;;;;;0.20;0.20;;;;;;;7.92;68.79;100293.84;4406944;32;32455;-79
2023/12/15 02:49:12;;;;;;;3.20;2.20;;;;;;;7.98;68.69;100307.75;4406687;32;36243;-80
2023/12/15 02:51:40;;;;;;;7.93;2.83;;;;;;;7.93;68.77;100310.50;4405759;32;33934;-80
2023/12/15 02:54:07;;;;;;;1.70;1.52;;;;;;;7.51;70.21;100312.38;4403770;32;32678;-80
2023/12/15 02:56:35;;;;;;;5.45;3.55;;;;;;;7.76;69.57;100317.91;4404230;32;32887;-80
2023/12/15 02:59:03;;;;;;;2.08;1.37;;;;;;;7.73;69.58;100326.72;4393697;32;32271;-80
2023/12/15 03:01:31;;;;;;;2.62;2.35;;;;;;;8.24;68.13;100315.84;4406497;32;32992;-81
2023/12/15 03:03:58;;;;;;;0.45;0.45;;;;;;;8.36;67.06;100317.28;4401060;32;32468;-82
2023/12/15 03:06:26;;;;;;;2.17;2.00;;;;;;;8.26;67.64;100323.69;4407429;32;33311;-82
2023/12/15 03:08:54;;;;;;;2.28;2.08;;;;;;;8.43;67.31;100327.63;4407233;32;33291;-82
2023/12/15 03:11:23;;;;;;;0.88;0.70;;;;;;;8.61;65.84;100325.44;4421541;32;34513;-81
2023/12/15 03:13:50;;;;;;;1.10;1.05;;;;;;;8.40;66.97;100330.38;4407378;32;34414;-82
2023/12/15 03:16:18;;;;;;;2.33;2.17;;;;;;;8.38;66.92;100340.06;4395180;32;33835;-82
2023/12/15 03:18:46;;;;;;;1.40;1.33;;;;;;;8.15;67.70;100345.87;4417954;32;33600;-82
2023/12/15 03:21:13;;;;;;;2.85;2.05;;;;;;;8.32;67.80;100349.84;4404469;32;33695;-82
2023/12/15 03:23:41;;;;;;;3.62;3.25;;;;;;;8.40;66.65;100340.91;4393970;32;33229;-80
2023/12/15 03:26:09;;;;;;;1.50;1.42;;;;;;;8.40;67.19;100356.69;4406306;32;34320;-80
2023/12/15 03:28:39;;;;;;;1.75;1.65;;;;;;;8.32;67.36;100350.72;4394619;32;35771;-80
2023/12/15 03:31:08;;;;;;;3.42;2.12;;;;;;;8.50;66.90;100357.31;4394735;32;33451;-80
2023/12/15 03:33:37;;;;;;;1.40;1.33;;;;;;;8.61;66.30;100357.00;4406163;32;33914;-80
2023/12/15 03:36:05;;;;;;;2.25;1.85;;;;;;;8.43;66.87;100364.47;4407119;32;32739;-80
2023/12/15 03:38:34;;;;;;;1.95;1.02;;;;;;;8.22;67.33;100359.75;4406482;32;32493;-80
2023/12/15 03:41:02;;;;;;;0.35;0.35;;;;;;;8.37;67.40;100374.31;4405383;32;33299;-80
2023/12/15 03:43:30;;;;;;;1.85;1.75;;;;;;;8.02;68.27;100380.38;4407210;32;34212;-80
2023/12/15 03:45:57;;;;;;;1.85;1.75;;;;;;;8.38;67.44;100381.28;4407381;32;33806;-80
2023/12/15 03:48:25;;;;;;;3.42;2.37;;;;;;;8.12;68.21;100374.91;4396419;32;32291;-80
2023/12/15 03:50:53;;;;;;;1.40;1.35;;;;;;;7.87;69.73;100384.25;4407875;32;33733;-80
2023/12/15 03:53:21;;;;;;;2.12;1.95;;;;;;;7.99;69.23;100383.13;4417053;32;33860;-80
2023/12/15 03:55:49;;;;;;;2.30;0.82;;;;;;;8.39;66.87;100373.34;4396502;32;33523;-80
2023/12/15 03:58:16;;;;;;;0.85;0.85;;;;;;;8.60;66.21;100378.97;4396118;32;33226;-81
2023/12/15 04:00:44;;;;;;;0.65;0.65;;;;;;;8.16;67.95;100386.19;4408760;32;33483;-81
2023/12/15 04:03:12;;;;;;;1.08;1.00;;;;;;;8.37;66.90;100384.84;4408929;32;32621;-81
2023/12/15 04:05:39;;;;;;;1.27;1.17;;;;;;;8.51;66.46;100389.75;4396810;32;33639;-81
2023/12/15 04:08:07;;;;;;;1.85;1.67;;;;;;;8.18;66.95;100394.91;4396462;32;32452;-80
2023/12/15 04:10:35;;;;;;;0.73;0.73;;;;;;;8.33;67.18;100399.78;4422613;32;33615;-81
2023/12/15 04:13:03;;;;;;;0.55;0.55;;;;;;;8.45;65.98;100394.28;4406647;32;33050;-81
2023/12/15 04:15:30;;;;;;;0.82;0.82;;;;;;;8.61;65.96;100399.13;4407615;32;32181;-81
2023/12/15 04:18:03;;;;;;;1.92;1.83;;;;;;;8.94;64.61;100394.72;4395859;32;34301;-81
2023/12/15 04:20:32;;;;;;;2.22;2.08;;;;;;;9.03;64.30;100401.53;4408977;32;33653;-81
2023/12/15 04:23:00;;;;;;;0.88;0.88;;;;;;;9.05;63.87;100403.19;4383059;32;35075;-81
2023/12/15 04:25:27;;;;;;;0.85;0.85;;;;;;;8.93;63.94;100396.50;4408891;32;33407;-80
2023/12/15 04:27:55;;;;;;;2.03;1.87;;;;;;;8.66;64.88;100390.19;4408739;32;34662;-80
2023/12/15 04:30:23;;;;;;;3.42;1.42;;;;;;;8.60;65.16;100392.16;4407614;32;33254;-80
2023/12/15 04:32:51;;;;;;;1.48;1.37;;;;;;;8.10;67.15;100396.84;4408440;32;33740;-81
2023/12/15 04:35:19;;;;;;;4.45;1.87;;;;;;;7.13;70.34;100416.53;4407633;32;33686;-80
2023/12/15 04:37:47;;;;;;;1.55;1.45;;;;;;;8.08;67.41;100414.47;4407980;32;35653;-80
2023/12/15 04:40:15;;;;;;;5.87;3.28;;;;;;;8.05;67.55;100425.03;4395130;32;34370;-81
2023/12/15 04:42:42;;;;;;;0.95;0.95;;;;;;;7.75;68.71;100430.09;4407071;32;33747;-81
2023/12/15 04:45:11;;;;;;;1.35;1.35;;;;;;;7.97;68.01;100430.47;4394327;32;33386;-81
2023/12/15 04:47:39;;;;;;;1.75;1.65;;;;;;;8.42;65.98;100428.53;4395008;32;33857;-81
2023/12/15 04:50:07;;;;;;;1.85;1.75;;;;;;;8.49;65.70;100431.88;4407667;32;33180;-80
2023/12/15 04:52:35;;;;;;;0.98;0.98;;;;;;;8.52;65.37;100441.47;4395214;32;33725;-81
2023/12/15 04:55:03;;;;;;;0.75;0.75;;;;;;;8.17;66.17;100451.06;4420145;32;33512;-81
2023/12/15 04:57:31;;;;;;;0.85;0.82;;;;;;;8.45;65.35;100460.06;4395041;32;32406;-81
2023/12/15 04:59:59;;;;;;;1.73;1.52;;;;;;;8.43;65.67;100453.94;4407806;32;33749;-81
2023/12/15 05:02:27;;;;;;;2.37;0.98;;;;;;;8.51;65.20;100460.81;4407126;32;33662;-80
2023/12/15 05:04:54;;;;;;;0.57;0.57;;;;;;;8.15;66.50;100463.38;4420022;32;33574;-79
2023/12/15 05:07:22;;;;;;;1.20;1.10;;;;;;;8.33;65.94;100462.94;4420091;32;33440;-80
2023/12/15 05:09:50;;;;;;;1.77;1.40;;;;;;;8.55;65.01;100462.47;4393434;32;34459;-80
2023/12/15 05:12:17;;;;;;;11.88;0.73;;;;;;;8.32;65.57;100466.47;4395482;32;32759;-80
2023/12/15 05:14:45;;;;;;;1.83;1.10;;;;;;;8.33;65.78;100462.09;4394660;32;33857;-80
2023/12/15 05:17:13;;;;;;;1.17;1.17;;;;;;;8.38;65.45;100471.63;4405765;32;33426;-79
2023/12/15 05:19:41;;;;;;;1.87;1.02;;;;;;;8.32;65.42;100471.75;4392835;32;33886;-80
2023/12/15 05:22:09;;;;;;;1.58;1.55;;;;;;;8.38;65.12;100476.88;4406106;32;33915;-81
2023/12/15 05:24:36;;;;;;;0.20;0.20;;;;;;;8.50;64.79;100485.38;4392957;32;32862;-81
2023/12/15 05:27:04;;;;;;;1.58;1.48;;;;;;;8.35;64.65;100495.34;4398892;32;32025;-81
2023/12/15 05:29:32;;;;;;;1.45;0.93;;;;;;;8.00;65.94;100517.19;4390490;32;34399;-80
2023/12/15 05:32:00;;;;;;;2.65;2.45;;;;;;;8.39;64.49;100519.84;4398089;32;34227;-81
2023/12/15 05:34:27;;;;;;;2.10;1.52;;;;;;;8.34;65.14;100526.97;4405959;32;33643;-80
2023/12/15 05:36:55;;;;;;;0.10;0.10;;;;;;;7.88;66.46;100527.94;4392115;32;34596;-80
2023/12/15 05:39:23;;;;;;;1.27;1.23;;;;;;;8.31;64.77;100533.16;4396261;32;33686;-81
2023/12/15 05:41:50;;;;;;;0.47;0.47;;;;;;;8.54;64.03;100534.41;4392212;32;32933;-81
2023/12/15 05:44:18;;;;;;;2.28;1.55;;;;;;;8.23;64.77;100540.38;4393079;32;33666;-82
2023/12/15 05:46:46;;;;;;;0.25;0.25;;;;;;;8.21;64.50;100552.66;4391366;32;33289;-79
2023/12/15 05:49:14;;;;;;;0.43;0.43;;;;;;;8.16;65.33;100554.53;4412934;32;33788;-79
2023/12/15 05:51:48;;;;;;;0.43;0.43;;;;;;;8.24;65.06;100552.59;4410447;32;34934;-80
2023/12/15 05:54:16;;;;;;;1.30;1.15;;;;;;;7.91;66.19;100555.06;4392828;32;33499;-80
2023/12/15 05:56:44;;;;;;;0.20;0.20;;;;;;;7.34;67.94;100563.19;4410165;32;33114;-80
2023/12/15 05:59:11;;;;;;;1.02;1.02;;;;;;;8.02;65.96;100556.59;4400610;32;33354;-81
2023/12/15 06:01:39;;;;;;;0.32;0.32;;;;;;;8.27;64.50;100555.19;4401002;32;34120;-81
2023/12/15 06:04:07;;;;;;;0.37;0.37;;;;;;;8.35;63.73;100560.25;4392699;32;33566;-81
2023/12/15 06:06:34;;;;;;;2.70;0.68;;;;;;;8.46;63.60;100563.56;4410101;32;33588;-81
2023/12/15 06:09:02;;;;;;;0.52;0.52;;;;;;;8.44;63.23;100571.47;4391117;32;34732;-81
2023/12/15 06:11:30;;;;;;;0.55;0.55;;;;;;;8.69;62.47;100568.31;4395588;32;33320;-81
2023/12/15 06:13:58;;;;;;;0.20;0.20;;;;;;;8.58;62.57;100575.56;4410988;32;34255;-81
2023/12/15 06:16:25;;;;;;;0.30;0.30;;;;;;;8.29;63.11;100587.56;4399510;32;33182;-81
2023/12/15 06:18:53;;;;;;;1.25;1.20;;;;;;;8.52;62.66;100578.34;4415124;32;32943;-81
2023/12/15 06:21:25;;;;;;;2.85;1.25;;;;;;;8.38;63.18;100595.31;4402974;32;33784;-81
2023/12/15 06:23:54;;;;;;;0.13;0.13;;;;;;;8.70;61.98;100594.59;4401525;32;32863;-81
2023/12/15 06:26:24;;;;;;;0.77;0.77;;;;;;;7.89;65.24;100609.47;4407547;32;33202;-82
2023/12/15 06:28:53;;;;;;;1.25;1.15;;;;;;;7.61;65.93;100616.16;4401030;32;33471;-81
2023/12/15 06:31:21;;;;;;;1.10;1.02;;;;;;;7.69;66.19;100616.84;4402984;32;34253;-82
2023/12/15 06:33:49;;;;;;;0.08;0.08;;;;;;;7.52;66.67;100624.19;4401826;32;32945;-82
2023/12/15 06:36:18;;;;;;;0.40;0.40;;;;;;;8.06;64.14;100616.13;4381461;32;33516;-82
2023/12/15 06:38:49;;;;;;;2.15;1.33;;;;;;;8.13;63.92;100626.50;4372642;32;34100;-82
2023/12/15 06:41:17;;;;;;;0.85;0.85;;;;;;;7.60;65.27;100627.56;4387904;32;34736;-82
2023/12/15 06:43:45;;;;;;;0.73;0.73;;;;;;;7.85;64.87;100635.84;4389912;32;34391;-81
2023/12/15 06:46:13;;;;;;;3.20;2.03;;;;;;;7.74;64.63;100636.06;4390859;32;32622;-81
2023/12/15 06:48:41;;;;;;;0.98;0.98;;;;;;;7.56;65.45;100641.66;4401129;32;34678;-81
2023/12/15 06:51:08;;;;;;;0.32;0.32;;;;;;;7.79;64.64;100647.34;4399852;32;33541;-81
2023/12/15 06:53:36;;;;;;;0.50;0.50;;;;;;;8.03;63.77;100664.41;4416423;32;33597;-82
2023/12/15 06:56:04;;;;;;;0.62;0.62;;;;;;;8.01;63.60;100660.94;4383847;32;34511;-81
2023/12/15 06:58:32;;;;;;;4.45;0.77;;;;;;;7.83;64.34;100670.06;4386929;32;33566;-81
2023/12/15 07:01:00;;;;;;;0.20;0.20;;;;;;;7.88;64.32;100676.09;4383017;32;34546;-81
2023/12/15 07:03:28;;;;;;;0.20;0.20;;;;;;;7.56;65.34;100689.81;4385637;32;33007;-81
2023/12/15 07:05:56;;;;;;;0.55;0.55;;;;;;;7.63;65.12;100690.56;4404576;32;32591;-82
2023/12/15 07:08:24;;;;;;;0.37;0.28;;;;;;;7.38;66.33;100698.88;4373215;32;33481;-80
2023/12/15 07:10:52;;;;;;;0.10;0.10;;;;;;;7.27;66.07;100703.44;4385838;32;32630;-81
2023/12/15 07:13:19;;;;;;;1.85;1.75;;;;;;;7.75;65.12;100705.28;4379496;32;33991;-80
2023/12/15 07:15:47;;;;;;;1.20;1.17;;;;;;;7.80;65.02;100720.06;4392628;32;33072;-81
2023/12/15 07:18:16;;;;;;;0.47;0.47;;;;;;;7.89;64.77;100724.28;4390998;32;34653;-79
2023/12/15 07:20:44;;;;;;;0.50;0.50;;;;;;;8.20;63.26;100724.56;4403599;32;34551;-78
2023/12/15 07:23:12;;;;;;;1.10;1.10;;;;;;;8.41;61.72;100721.56;4391742;32;32150;-79
2023/12/15 07:25:39;;;;;;;0.35;0.35;;;;;;;7.83;63.93;100734.91;4388086;32;33001;-79
2023/12/15 07:28:07;;;;;;;0.30;0.30;;;;;;;7.88;63.89;100733.94;4402144;32;34320;-79
2023/12/15 07:30:35;;;;;;;0.55;0.55;;;;;;;7.99;63.52;100751.28;4387801;32;33556;-79
2023/12/15 07:33:03;;;;;;;0.45;0.45;;;;;;;8.16;62.07;100743.94;4380708;32;32737;-79
2023/12/15 07:35:31;;;;;;;0.43;0.28;;;;;;;8.15;62.72;100747.47;4401095;32;33438;-79
2023/12/15 07:38:00;;;;;;;0.65;0.65;;;;;;;8.16;62.73;100752.69;4385514;32;32251;-79
2023/12/15 07:40:28;;;;;;;0.30;0.30;;;;;;;8.05;62.73;100764.31;4394713;32;33722;-79
2023/12/15 07:42:56;;;;;;;0.55;0.55;;;;;;;8.46;60.88;100761.81;4398156;32;33679;-78
2023/12/15 07:45:24;;;;;;;0.00;0.00;;;;;;;8.35;60.54;100758.47;4367657;32;30807;-79
2023/12/15 07:47:53;;;;;;;0.20;0.20;;;;;;;7.64;64.05;100763.25;4401515;32;33148;-79
2023/12/15 07:50:21;;;;;;;0.20;0.20;;;;;;;7.52;64.45;100768.72;4389650;32;33542;-79
2023/12/15 07:52:49;;;;;;;0.62;0.62;;;;;;;8.10;61.90;100771.22;4389719;32;32095;-79
2023/12/15 07:55:18;;;;;;;0.10;0.10;;;;;;;7.93;62.92;100771.56;4385729;32;32398;-79
2023/12/15 07:57:45;;;;;;;0.05;0.05;;;;;;;8.00;62.54;100772.28;4403876;32;33587;-79
2023/12/15 08:00:14;;;;;;;0.30;0.30;;;;;;;8.12;62.19;100779.97;4398930;32;32955;-79
2023/12/15 08:02:44;;;;;;;0.05;0.05;;;;;;;8.33;61.28;100789.22;4403507;32;35253;-78
2023/12/15 08:05:12;;;;;;;0.20;0.20;;;;;;;8.51;60.71;100788.06;4416118;32;33933;-79
2023/12/15 08:07:41;;;;;;;0.03;0.03;;;;;;;8.69;60.29;100792.09;4372454;32;33648;-79
2023/12/15 08:10:09;;;;;;;0.10;0.10;;;;;;;8.56;60.36;100807.25;4386068;32;32860;-80
2023/12/15 08:12:37;;;;;;;0.57;0.57;;;;;;;8.26;61.42;100813.94;4389791;32;34290;-81
2023/12/15 08:15:05;;;;;;;0.00;0.00;;;;;;;8.36;61.24;100809.38;4372670;32;32981;-81
2023/12/15 08:17:33;;;;;;;0.00;0.00;;;;;;;8.51;60.35;100822.28;4404185;32;34733;-80
2023/12/15 08:20:02;;;;;;;0.35;0.35;;;;;;;8.41;60.73;100823.34;4393087;32;34052;-80
2023/12/15 08:22:30;;;;;;;0.15;0.15;;;;;;;8.28;61.02;100838.44;4391399;32;33712;-80
2023/12/15 08:24:58;;;;;;;0.40;0.35;;;;;;;8.47;60.43;100846.91;4389077;32;34577;-79
2023/12/15 08:27:25;;;;;;;0.45;0.45;;;;;;;8.40;60.71;100842.66;4384122;32;34337;-80
2023/12/15 08:29:56;;;;;;;0.00;0.00;;;;;;;8.42;60.48;100851.41;4408873;32;34765;-79
2023/12/15 08:32:24;;;;;;;0.28;0.28;;;;;;;8.51;60.30;100860.91;4393478;32;34623;-79
2023/12/15 08:34:52;;;;;;;0.20;0.20;;;;;;;8.52;60.43;100858.22;4378086;32;34014;-79
2023/12/15 08:37:22;;;;;;;0.10;0.10;;;;;;;8.63;59.67;100865.91;4400227;32;33782;-79
2023/12/15 08:39:50;;;;;;;0.20;0.20;;;;;;;8.30;61.25;100865.59;4392279;32;34927;-82
2023/12/15 08:42:18;;;;;;;1.15;1.05;;;;;;;8.40;61.60;100880.38;4392261;32;92165;-79
2023/12/15 08:44:45;;;;;;;0.65;0.62;;;;;;;8.34;60.96;100875.16;4389934;32;34613;-79
2023/12/15 08:47:13;;;;;;;0.55;0.55;;;;;;;7.80;63.25;100877.81;4369551;32;33155;-79
2023/12/15 08:49:40;;;;;;;0.15;0.15;;;;;;;7.67;63.66;100889.41;4390517;32;33782;-79
2023/12/15 08:52:08;;;;;;;0.40;0.40;;;;;;;7.87;63.61;100891.72;4397738;32;34015;-79
2023/12/15 08:54:36;;;;;;;1.80;1.65;;;;;;;8.57;60.43;100889.72;4391840;32;32680;-80
2023/12/15 08:57:04;;;;;;;0.43;0.37;;;;;;;8.14;61.88;100903.59;4389104;32;32467;-80
2023/12/15 08:59:31;;;;;;;0.50;0.40;;;;;;;8.38;60.81;100897.09;4389408;32;34125;-79
2023/12/15 09:01:59;;;;;;;0.10;0.10;;;;;;;8.60;60.22;100908.13;4400316;32;33266;-80
2023/12/15 09:04:27;;;;;;;0.68;0.43;;;;;;;8.39;60.63;100910.19;4405257;32;33553;-79
2023/12/15 09:06:55;;;;;;;0.88;0.88;;;;;;;8.31;61.29;100925.25;4403553;32;33496;-80
2023/12/15 09:09:24;;;;;;;0.22;0.22;;;;;;;8.48;60.48;100929.38;4402493;32;34143;-80
2023/12/15 09:11:52;;;;;;;0.22;0.22;;;;;;;8.60;60.31;100926.53;4374541;32;33216;-80
2023/12/15 09:14:21;;;;;;;0.65;0.35;;;;;;;8.19;62.01;100942.09;4379823;32;33727;-80
2023/12/15 09:16:49;;;;;;;3.80;0.77;;;;;;;8.41;60.98;100941.78;4393581;32;34528;-80
2023/12/15 09:19:17;;;;;;;0.05;0.05;;;;;;;8.37;61.08;100943.59;4388746;32;32958;-79
2023/12/15 09:21:45;;;;;;;0.43;0.43;;;;;;;8.52;60.56;100938.97;4401890;32;32319;-80
2023/12/15 09:24:17;;;;;;;0.13;0.10;;;;;;;8.34;61.44;100942.72;4364371;32;34254;-80
2023/12/15 09:26:45;;;;;;;3.67;0.95;;;;;;;8.43;61.13;100943.47;4402786;32;33385;-80
2023/12/15 09:29:14;;;;;;;0.35;0.20;;;;;;;8.26;61.94;100950.75;4389987;32;34059;-79
2023/12/15 09:31:42;;;;;;;0.50;0.50;;;;;;;8.68;59.63;100954.44;4385095;32;33822;-80
2023/12/15 09:34:09;;;;;;;0.30;0.30;;;;;;;8.74;59.50;100961.41;4405212;32;34623;-80
2023/12/15 09:36:41;;;;;;;0.10;0.10;;;;;;;8.68;59.99;100970.25;4405328;32;33831;-79
2023/12/15 09:39:08;;;;;;;0.10;0.10;;;;;;;8.32;61.38;100971.72;4392624;32;33999;-80
2023/12/15 09:41:36;;;;;;;0.25;0.25;;;;;;;8.65;60.70;100978.22;4397965;32;33586;-80
2023/12/15 09:44:04;;;;;;;0.82;0.62;;;;;;;8.51;60.58;100984.62;4385892;32;33309;-80
2023/12/15 09:46:32;;;;;;;0.28;0.28;;;;;;;8.55;60.44;100974.00;4376535;32;33459;-80
2023/12/15 09:49:01;;;;;;;0.80;0.80;;;;;;;8.77;59.69;100971.84;4407081;32;34493;-81
2023/12/15 09:51:30;;;;;;;0.35;0.35;;;;;;;8.85;60.05;100983.13;4396047;32;33948;-80
2023/12/15 09:53:57;;;;;;;0.52;0.52;;;;;;;9.00;59.17;100975.84;4383596;32;32752;-80
2023/12/15 09:56:25;;;;;;;3.35;1.15;;;;;;;9.32;58.13;100989.28;4392489;32;33030;-80
2023/12/15 09:58:54;;;;;;;0.62;0.62;;;;;;;9.06;58.98;100988.91;4380981;32;35196;-80
2023/12/15 10:01:21;;;;;;;0.43;0.43;;;;;;;9.15;58.16;100994.00;4392805;32;32113;-80
2023/12/15 10:03:50;;;;;;;1.58;1.48;;;;;;;8.86;59.50;100984.88;4393664;32;33448;-80
2023/12/15 10:06:18;;;;;;;0.55;0.55;;;;;;;8.35;61.05;100997.97;4393817;32;33731;-80
2023/12/15 10:08:46;;;;;;;0.08;0.08;;;;;;;8.68;59.63;101000.97;4392865;32;34094;-80
2023/12/15 10:11:18;;;;;;;0.52;0.52;;;;;;;8.63;59.83;101000.19;4406418;32;33539;-80
2023/12/15 10:13:46;;;;;;;0.62;0.62;;;;;;;8.82;59.27;101008.66;4392351;32;33792;-80
2023/12/15 10:16:14;;;;;;;0.62;0.62;;;;;;;8.53;60.46;101010.00;4404706;32;33729;-80
2023/12/15 10:18:42;;;;;;;1.42;1.33;;;;;;;8.90;58.75;101014.66;4390963;32;32802;-80
2023/12/15 10:21:13;;;;;;;0.17;0.17;;;;;;;8.96;58.66;101018.03;4404947;32;33575;-80
2023/12/15 10:23:41;;;;;;;1.23;0.75;;;;;;;9.24;58.09;101023.69;4398298;32;32481;-80
2023/12/15 10:26:08;;;;;;;0.80;0.80;;;;;;;8.80;59.77;101019.22;4405221;32;33477;-80
2023/12/15 10:28:38;;;;;;;0.95;0.93;;;;;;;8.79;59.14;101022.75;4390332;32;34096;-80
2023/12/15 10:31:09;;;;;;;0.30;0.30;;;;;;;8.94;58.75;101019.84;4373954;32;35450;-80
2023/12/15 10:33:37;;;;;;;0.95;0.95;;;;;;;9.23;57.29;101018.44;4391767;32;33790;-80
2023/12/15 10:36:06;;;;;;;0.52;0.52;;;;;;;9.32;56.96;101026.19;4393583;32;34504;-80
2023/12/15 10:38:34;;;;;;;0.13;0.13;;;;;;;9.13;58.02;101037.97;4380360;32;34062;-80
2023/12/15 10:41:03;;;;;;;0.00;0.00;;;;;;;9.09;58.34;101031.00;4389958;32;33641;-80
2023/12/15 10:43:31;;;;;;;1.45;0.85;;;;;;;9.17;57.89;101032.63;4391120;32;33541;-80
2023/12/15 10:46:02;;;;;;;4.30;3.90;;;;;;;8.54;59.79;101042.47;4391100;32;33755;-80
2023/12/15 10:48:33;;;;;;;1.52;0.82;;;;;;;9.01;58.70;101035.53;4376765;32;32604;-80
2023/12/15 10:51:01;;;;;;;3.53;1.98;;;;;;;9.13;58.07;101037.97;4390006;32;32718;-80
2023/12/15 10:53:32;;;;;;;0.15;0.15;;;;;;;9.57;56.70;101037.13;4400108;32;32038;-80
2023/12/15 10:56:00;;;;;;;0.62;0.62;;;;;;;9.28;57.64;101044.72;4401374;32;33999;-80
2023/12/15 10:58:30;;;;;;;0.30;0.30;;;;;;;9.49;57.42;101046.94;4399906;32;34727;-81
2023/12/15 11:00:58;;;;;;;0.05;0.05;;;;;;;9.74;56.31;101044.72;4379235;32;33423;-80
2023/12/15 11:03:26;;;;;;;0.13;0.13;;;;;;;9.66;56.60;101051.91;4378699;32;34919;-80
2023/12/15 11:05:55;;;;;;;0.80;0.55;;;;;;;9.97;55.20;101052.16;4403417;32;34932;-80
2023/12/15 11:08:22;;;;;;;0.77;0.77;;;;;;;10.01;54.49;101054.66;4369039;32;34474;-81
2023/12/15 11:10:51;;;;;;;1.55;0.45;;;;;;;10.01;54.78;101059.06;4373219;32;33432;-80
2023/12/15 11:13:58;;;;;;;1.08;1.08;;;;;;;9.86;55.62;101055.00;4402243;32;34494;-81
2023/12/15 11:16:28;;;;;;;0.57;0.57;;;;;;;9.75;56.07;101057.00;4390445;32;34440;-81
2023/12/15 11:18:58;;;;;;;0.22;0.22;;;;;;;9.76;56.30;101066.63;4401176;32;34356;-81
2023/12/15 11:21:26;;;;;;;0.85;0.85;;;;;;;10.12;54.09;101074.69;4401364;32;34470;-81
2023/12/15 11:23:59;;;;;;;1.60;0.50;;;;;;;9.70;56.73;101075.53;4401074;32;33556;-81
2023/12/15 11:26:33;;;;;;;0.43;0.13;;;;;;;10.13;54.33;101082.56;4401173;32;33471;-81
2023/12/15 11:29:06;;;;;;;1.65;0.80;;;;;;;10.16;53.88;101073.69;4397265;32;34154;-81
2023/12/15 11:31:35;;;;;;;9.70;0.50;;;;;;;9.76;55.75;101085.09;4389868;32;34077;-81
2023/12/15 11:34:03;;;;;;;0.57;0.57;;;;;;;9.51;55.87;101083.84;4388769;32;34037;-81
2023/12/15 11:36:39;;;;;;;1.77;1.65;;;;;;;9.46;56.79;101084.78;4390115;32;32600;-81
2023/12/15 11:39:11;;;;;;;1.23;1.10;;;;;;;9.85;55.52;101087.56;4390521;32;34212;-82